Details From KPRC - Prescott Ernest A. Love Field
To KSEZ - Sedona
Flight Number -
Tags Routegen Generated
Created
Modified
Stats Distance 34 nm / 62 km
Max Altitude 100 ft / 30 m
Waypoints 5
Social Downloads 3
Likes 0
Share

Download

Looking for another format? Having issues loading an existing format? Contact us
Advertisement - Login to hide

Notes

Departing runway 4 KPRC. Arriving runway 4 KSEZ.

Route

KPRC +34.72_-112.35 +34.75_-112.11 +34.79_-111.86 KSEZ

ID Type Via Altitude (ft/m) Position (lat/lon) Dist (leg/tot) Name
O KPRC APT - 0 / 0 34.66134 / -112.41220 - / 0 nm
+34.72_-112.35 LATLON - 100 / 30 34.71582 / -112.35427 4 / 4 nm
+34.75_-112.11 LATLON - 100 / 30 34.75445 / -112.10594 12 / 16 nm
+34.79_-111.86 LATLON - 100 / 30 34.79308 / -111.85761 12 / 29 nm
O KSEZ APT - 0 / 0 34.84369 / -111.79461 4 / 33 nm

Altitude Profile

Advertisement - Login to hide

KPRC

Details ICAO KPRC (PRC)
Name Prescott Regional - Ernest A Love Field
Region United States
Timezone America/Phoenix (UTC-7.0)
Stats Elevation 5,045 ft / 1,538 m (AMSL)
Location 34.654700° -112.419000°
Runways 3
Magnetic Variation 10.339° E

METAR

KPRC 211953Z VRB05KT 10SM CLR 11/03 A3006 RMK AO2 SLP147 T01110028

Decode

TAF

TAF KPRC 211720Z 2118/2218 VRB03KT P6SM SCT050 FM221100 VRB05KT P6SM FEW003 BKN025 FM221600 18008G14KT P6SM SCT003 BKN025 PROB30 2217/2218 5SM -SHRA BR BKN003

Decode

Departure Runways

ID Width Length Bearing (true/mag) Surface Threshold Overrun Markings Lighting
03L 60 ft / 18 m 4,847 ft / 1,478 m 41.13° / 30.80° ASPHALT 810 ft / 247 m 0 ft / 0 m VISUAL EDGE THRESHOLD
03R 150 ft / 46 m 7,626 ft / 2,324 m 41.15° / 30.81° ASPHALT 384 ft / 117 m 404 ft / 123 m APP EDGE THRESHOLD REIL-UNI
12 75 ft / 23 m 4,409 ft / 1,344 m 136.67° / 126.33° ASPHALT 151 ft / 46 m 0 ft / 0 m APP EDGE THRESHOLD REIL-OMNI
21L 150 ft / 46 m 7,626 ft / 2,324 m 221.16° / 210.82° ASPHALT 0 ft / 0 m 0 ft / 0 m PREC-APP EDGE THRESHOLD MALSR
21R 60 ft / 18 m 4,847 ft / 1,478 m 221.14° / 210.80° ASPHALT 0 ft / 0 m 0 ft / 0 m VISUAL EDGE THRESHOLD
30 75 ft / 23 m 4,409 ft / 1,344 m 316.68° / 306.34° ASPHALT 0 ft / 0 m 0 ft / 0 m APP EDGE THRESHOLD REIL-OMNI

KSEZ

Details ICAO KSEZ (SDX)
Name Sedona Airport
Region United States
Timezone America/Phoenix (UTC-7.0)
Stats Elevation 4,830 ft / 1,472 m (AMSL)
Location 34.848600° -111.788000°
Runways 1
Magnetic Variation 10.167° E

METAR

KSEZ 212035Z AUTO 18003KT 10SM SCT035 SCT095 13/03 A3005 RMK AO2

Decode

TAF

TAF KSEZ 211720Z 2118/2218 VRB03KT P6SM SCT050 SCT100 FM221100 VRB05KT P6SM FEW004 BKN025 FM221600 18008G14KT P6SM SCT004 BKN020 PROB30 2217/2218 5SM -SHRA BR BKN004

Decode

Destination Runways

ID Width Length Bearing (true/mag) Surface Threshold Overrun Markings Lighting
03 100 ft / 30 m 5,137 ft / 1,566 m 45.64° / 35.47° ASPHALT 0 ft / 0 m 118 ft / 36 m APP EDGE THRESHOLD REIL-OMNI
21 100 ft / 30 m 5,137 ft / 1,566 m 225.64° / 215.48° ASPHALT 0 ft / 0 m 131 ft / 40 m APP EDGE THRESHOLD REIL-OMNI

Popular Alternatives